Stena Germanica — SKPZ — position and weather

sailwx.info

Track history (hours):
 
Tides and Currents Weather Stations Pressure Air Temp Water Temp Dewpoint Dewpoint Depression Visibility Wind Speed Wind Dir Waves Ship Positions

Stena Germanica

Last reported at 2014-Oct-25 08:34 UTC. Time now 2014-Oct-25 09:29 UTC.
Position N 54°43' E 018°54'.

Length 176 m; draft 6.4 m.

Type: Passenger vessel. MMSI: 265292000.

Date/timePositionNaut miles runAvg speedWind from/ knotsBaromVisibWave heightAir tempDewpointWater temp
2014-Oct-25 08:34N 54°43' E 018°54'1313.3
2014-Oct-25 07:34N 54°32' E 018°43'8 7.3
2014-Oct-25 06:31N 54°33' E 018°30'0 0.0
2014-Oct-25 05:31N 54°33' E 018°30'7 7.5
2014-Oct-25 04:33N 54°32' E 018°43'1312.8
2014-Oct-25 03:33N 54°43' E 018°56'1414.5
2014-Oct-25 02:33N 54°55' E 018°42'1414.4
2014-Oct-25 01:33N 55°02' E 018°21'1414.5
2014-Oct-25 00:33N 55°10' E 017°60'1714.6
2014-Oct-24 23:23N 55°20' E 017°35'5714.3
2014-Oct-24 19:26N 55°50' E 016°11'1314.8
2014-Oct-24 18:33N 55°58' E 015°52'1313.1
2014-Oct-24 17:33N 56°07' E 015°35'4 3.5
2014-Oct-24 16:33N 56°10' E 015°38'0 0.0
2014-Oct-24 15:33N 56°10' E 015°38'0 0.0
2014-Oct-24 14:33N 56°10' E 015°38'0 0.0
2014-Oct-24 13:33N 56°10' E 015°38'0 0.0
2014-Oct-24 12:33N 56°10' E 015°38'0 0.0
2014-Oct-24 11:33N 56°10' E 015°38'0 0.0
2014-Oct-24 10:33N 56°10' E 015°38'0 0.0
2014-Oct-24 09:33N 56°10' E 015°38'0 0.0
2014-Oct-24 08:33N 56°10' E 015°38'0 0.0
2014-Oct-24 07:33N 56°10' E 015°38'4 4.1
2014-Oct-24 06:33N 56°06' E 015°35'1413.9
2014-Oct-24 05:33N 55°57' E 015°53'6715.5
2014-Oct-24 01:16N 55°21' E 017°32'1215.6
2014-Oct-24 00:28N 55°14' E 017°51'1415.7
2014-Oct-23 23:33N 55°06' E 018°11'1615.8
2014-Oct-23 22:33N 54°57' E 018°33'1414.4
2014-Oct-23 21:33N 54°46' E 018°50'1313.3
2014-Oct-23 20:33N 54°33' E 018°50'1211.5
2014-Oct-23 19:33N 54°33' E 018°30'0 0.0
2014-Oct-23 18:33N 54°33' E 018°30'8 8.4
2014-Oct-23 17:33N 54°32' E 018°45'1413.8
2014-Oct-23 16:33N 54°45' E 018°50'1817.6
2014-Oct-23 15:33N 54°58' E 018°30'1817.8
2014-Oct-23 14:33N 55°09' E 018°04'8717.4
2014-Oct-23 09:33N 55°56' E 015°55'1515.1
2014-Oct-23 08:33N 56°06' E 015°34'5 4.6
2014-Oct-23 07:33N 56°10' E 015°38'0 0.1
2014-Oct-23 06:33N 56°10' E 015°38'1111.1
2014-Oct-23 05:34N 55°60' E 015°46'8615.7
2014-Oct-23 00:06N 55°12' E 017°52'915.6
2014-Oct-22 23:33N 55°07' E 018°04'1615.8
2014-Oct-22 22:33N 54°59' E 018°27'1515.1
2014-Oct-22 21:33N 54°48' E 018°46'1313.1
2014-Oct-22 20:33N 54°36' E 018°54'1212.3
2014-Oct-22 19:34N 54°32' E 018°34'2 2.2
2014-Oct-22 18:33N 54°33' E 018°30'3 3.2
2014-Oct-22 17:33N 54°32' E 018°36'1514.6
2014-Oct-22 16:33N 54°42' E 018°55'1716.8
2014-Oct-22 15:33N 54°55' E 018°37'1716.6
2014-Oct-22 14:33N 55°04' E 018°13'8416.4
2014-Oct-22 09:28N 55°51' E 016°11'1516.8
2014-Oct-22 08:33N 55°59' E 015°48'1211.6
2014-Oct-22 07:33N 56°09' E 015°36'2 1.5
2014-Oct-22 06:32N 56°10' E 015°38'0 0.3
2014-Oct-22 05:33N 56°10' E 015°37'1312.7
2014-Oct-22 04:33N 55°59' E 015°49'1716.9
2014-Oct-22 03:33N 55°52' E 016°16'6716.7
2014-Oct-21 23:32N 55°13' E 017°53'1717.1
2014-Oct-21 22:33N 55°03' E 018°17'1716.6
2014-Oct-21 21:33N 54°53' E 018°40'1716.6
2014-Oct-21 20:33N 54°40' E 018°57'1313.3
2014-Oct-21 19:33N 54°32' E 018°38'5 4.6
2014-Oct-21 18:32N 54°33' E 018°30'0 0.0
2014-Oct-21 17:32N 54°33' E 018°30'9 9.4
2014-Oct-21 16:33N 54°32' E 018°46'1414.5
2014-Oct-21 15:33N 54°47' E 018°48'1818.5
2014-Oct-21 14:33N 54°60' E 018°26'1818.1
2014-Oct-21 13:33N 55°11' E 018°00'7518.3
2014-Oct-21 09:26N 55°51' E 016°08'1517.4
2014-Oct-21 08:33N 55°60' E 015°45'1111.0
2014-Oct-21 07:34N 56°10' E 015°38'0 0.1
2014-Oct-21 06:32N 56°10' E 015°38'0 0.0
2014-Oct-21 05:32N 56°10' E 015°38'9 8.9
2014-Oct-21 04:34N 56°01' E 015°41'9014.7
2014-Oct-20 22:25N 55°12' E 017°54'1314.6
2014-Oct-20 21:34N 55°05' E 018°12'1514.6
2014-Oct-20 20:34N 54°57' E 018°33'1414.4
2014-Oct-20 19:33N 54°46' E 018°50'1312.5
2014-Oct-20 18:33N 54°34' E 018°51'1212.0
2014-Oct-20 17:33N 54°33' E 018°30'0 0.1
2014-Oct-20 16:31N 54°33' E 018°30'0 0.0
2014-Oct-20 15:31N 54°33' E 018°30'0 0.0
2014-Oct-20 14:31N 54°33' E 018°30'0 0.0
2014-Oct-20 13:31N 54°33' E 018°30'0 0.0
2014-Oct-20 12:31N 54°33' E 018°30'0 0.0
2014-Oct-20 11:31N 54°33' E 018°30'0 0.0
2014-Oct-20 10:31N 54°33' E 018°30'0 0.0
2014-Oct-20 09:28N 54°33' E 018°30'0 0.0
2014-Oct-20 08:31N 54°33' E 018°30'0 0.0
2014-Oct-20 07:31N 54°33' E 018°30'1 1.2
2014-Oct-20 06:34N 54°32' E 018°32'1212.4
2014-Oct-20 05:33N 54°36' E 018°53'1313.4
2014-Oct-20 04:33N 54°49' E 018°47'1515.3
2014-Oct-20 03:33N 54°60' E 018°28'1515.4
2014-Oct-20 02:33N 55°08' E 018°05'1615.4
2014-Oct-20 01:32N 55°16' E 017°42'6415.4
2014-Oct-19 21:20N 55°52' E 016°07'1215.3
2014-Oct-19 20:33N 55°58' E 015°49'1212.4
2014-Oct-19 19:33N 56°09' E 015°36'1 1.5
2014-Oct-19 18:33N 56°10' E 015°38'4 3.6
2014-Oct-19 17:34N 56°07' E 015°35'1514.7
2014-Oct-19 16:34N 55°57' E 015°54'8116.2
2014-Oct-19 11:33N 55°12' E 017°55'1616.4
2014-Oct-19 10:33N 55°03' E 018°18'1616.4
2014-Oct-19 09:34N 54°53' E 018°40'1616.2
2014-Oct-19 08:34N 54°40' E 018°57'1413.7
2014-Oct-19 07:33N 54°32' E 018°38'5 4.3
2014-Oct-19 06:29N 54°33' E 018°30'0 0.0
2014-Oct-19 05:33N 54°33' E 018°30'10 9.6
2014-Oct-19 04:33N 54°33' E 018°47'1413.7
2014-Oct-19 03:33N 54°46' E 018°52'1817.8
2014-Oct-19 02:33N 54°58' E 018°29'1717.3
2014-Oct-19 01:33N 55°08' E 018°05'1917.4
2014-Oct-19 00:28N 55°19' E 017°37'5817.2
2014-Oct-18 21:05N 55°51' E 016°11'917.3
2014-Oct-18 20:33N 55°56' E 015°57'1615.7
2014-Oct-18 19:33N 56°04' E 015°34'6 5.7
2014-Oct-18 18:31N 56°10' E 015°38'0 0.0
2014-Oct-18 17:34N 56°10' E 015°38'10 9.8
2014-Oct-18 16:33N 56°01' E 015°43'1616.1
2014-Oct-18 15:33N 55°52' E 016°08'5916.8
2014-Oct-18 12:03N 55°20' E 017°35'817.0
2014-Oct-18 11:33N 55°15' E 017°47'1716.9
2014-Oct-18 10:33N 55°06' E 018°12'1716.9
2014-Oct-18 09:33N 54°56' E 018°35'1716.7
2014-Oct-18 08:33N 54°43' E 018°54'1312.6
2014-Oct-18 07:33N 54°32' E 018°43'7 7.3
2014-Oct-18 06:32N 54°33' E 018°30'0 0.0
2014-Oct-18 05:34N 54°33' E 018°30'9 9.1
2014-Oct-18 04:33N 54°32' E 018°46'1212.3
2014-Oct-18 03:33N 54°44' E 018°54'1414.0
2014-Oct-18 02:33N 54°54' E 018°37'1414.1
2014-Oct-18 01:33N 55°03' E 018°17'1414.3
2014-Oct-18 00:33N 55°10' E 017°56'1514.4
2014-Oct-17 23:32N 55°17' E 017°34'7114.3
2014-Oct-17 18:33N 55°54' E 015°45'1313.4
2014-Oct-17 17:33N 56°06' E 015°34'5 4.6
2014-Oct-17 16:33N 56°10' E 015°38'0 0.0
2014-Oct-17 15:33N 56°10' E 015°38'0 0.0
2014-Oct-17 14:33N 56°10' E 015°38'0 0.0
2014-Oct-17 13:33N 56°10' E 015°38'0 0.0
2014-Oct-17 12:33N 56°10' E 015°38'0 0.0
2014-Oct-17 11:33N 56°10' E 015°38'0 0.0
2014-Oct-17 10:33N 56°10' E 015°38'0 0.0
2014-Oct-17 09:33N 56°10' E 015°38'0 0.0
2014-Oct-17 08:33N 56°10' E 015°38'0 0.0
2014-Oct-17 07:33N 56°10' E 015°38'3 2.6
2014-Oct-17 06:33N 56°08' E 015°36'1413.8
2014-Oct-17 05:33N 55°57' E 015°52'7915.8
2014-Oct-17 00:32N 55°14' E 017°49'1616.2
2014-Oct-16 23:33N 55°05' E 018°12'1616.2
2014-Oct-16 22:33N 54°55' E 018°35'1615.9
2014-Oct-16 21:33N 54°44' E 018°54'1313.0
2014-Oct-16 20:33N 54°32' E 018°45'9 8.5
2014-Oct-16 19:32N 54°33' E 018°30'0 0.0
2014-Oct-16 18:33N 54°33' E 018°30'7 7.2
2014-Oct-16 17:34N 54°32' E 018°43'1616.2
2014-Oct-16 16:33N 54°46' E 018°57'1918.7
2014-Oct-16 15:33N 54°58' E 018°32'1918.2
2014-Oct-16 14:29N 55°09' E 018°04'9118.4
2014-Oct-16 09:33N 55°58' E 015°50'1312.7
2014-Oct-16 08:33N 56°08' E 015°36'2 1.7
2014-Oct-16 07:32N 56°10' E 015°38'0 0.1
2014-Oct-16 06:34N 56°10' E 015°38'1110.5
2014-Oct-16 05:33N 56°00' E 015°45'1414.1
2014-Oct-16 04:33N 55°53' E 016°06'7715.4
2014-Oct-15 23:33N 55°10' E 017°60'1716.6
2014-Oct-15 22:33N 55°01' E 018°24'1615.5
2014-Oct-15 21:33N 54°50' E 018°43'1514.6
2014-Oct-15 20:33N 54°38' E 018°56'1312.9
2014-Oct-15 19:34N 54°32' E 018°36'3 3.2
2014-Oct-15 18:32N 54°33' E 018°30'0 0.5
2014-Oct-15 17:33N 54°33' E 018°31'1111.0
2014-Oct-15 16:34N 54°33' E 018°50'1515.0
2014-Oct-15 15:34N 54°48' E 018°52'1818.1
2014-Oct-15 14:34N 54°60' E 018°28'1717.2
2014-Oct-15 13:34N 55°09' E 018°02'  
Track history (hours):
 
Tides and Currents Weather Stations Pressure Air Temp Water Temp Dewpoint Dewpoint Depression Visibility Wind Speed Wind Dir Waves Ship Positions

Stena Germanica

Last reported at 2014-Oct-25 08:34 UTC. Time now 2014-Oct-25 09:29 UTC.
Position N 54°43' E 018°54'.

Length 176 m; draft 6.4 m.

Type: Passenger vessel. MMSI: 265292000.

Date/timePositionNaut miles runAvg speedWind from/ knotsBaromVisibWave heightAir tempDewpointWater temp
2014-Oct-25 08:34N 54°43' E 018°54'1313.3
2014-Oct-25 07:34N 54°32' E 018°43'8 7.3
2014-Oct-25 06:31N 54°33' E 018°30'0 0.0
2014-Oct-25 05:31N 54°33' E 018°30'7 7.5
2014-Oct-25 04:33N 54°32' E 018°43'1312.8
2014-Oct-25 03:33N 54°43' E 018°56'1414.5
2014-Oct-25 02:33N 54°55' E 018°42'1414.4
2014-Oct-25 01:33N 55°02' E 018°21'1414.5
2014-Oct-25 00:33N 55°10' E 017°60'1714.6
2014-Oct-24 23:23N 55°20' E 017°35'5714.3
2014-Oct-24 19:26N 55°50' E 016°11'1314.8
2014-Oct-24 18:33N 55°58' E 015°52'1313.1
2014-Oct-24 17:33N 56°07' E 015°35'4 3.5
2014-Oct-24 16:33N 56°10' E 015°38'0 0.0
2014-Oct-24 15:33N 56°10' E 015°38'0 0.0
2014-Oct-24 14:33N 56°10' E 015°38'0 0.0
2014-Oct-24 13:33N 56°10' E 015°38'0 0.0
2014-Oct-24 12:33N 56°10' E 015°38'0 0.0
2014-Oct-24 11:33N 56°10' E 015°38'0 0.0
2014-Oct-24 10:33N 56°10' E 015°38'0 0.0
2014-Oct-24 09:33N 56°10' E 015°38'0 0.0
2014-Oct-24 08:33N 56°10' E 015°38'0 0.0
2014-Oct-24 07:33N 56°10' E 015°38'4 4.1
2014-Oct-24 06:33N 56°06' E 015°35'1413.9
2014-Oct-24 05:33N 55°57' E 015°53'6715.5
2014-Oct-24 01:16N 55°21' E 017°32'1215.6
2014-Oct-24 00:28N 55°14' E 017°51'1415.7
2014-Oct-23 23:33N 55°06' E 018°11'1615.8
2014-Oct-23 22:33N 54°57' E 018°33'1414.4
2014-Oct-23 21:33N 54°46' E 018°50'1313.3
2014-Oct-23 20:33N 54°33' E 018°50'1211.5
2014-Oct-23 19:33N 54°33' E 018°30'0 0.0
2014-Oct-23 18:33N 54°33' E 018°30'8 8.4
2014-Oct-23 17:33N 54°32' E 018°45'1413.8
2014-Oct-23 16:33N 54°45' E 018°50'1817.6
2014-Oct-23 15:33N 54°58' E 018°30'1817.8
2014-Oct-23 14:33N 55°09' E 018°04'8717.4
2014-Oct-23 09:33N 55°56' E 015°55'1515.1
2014-Oct-23 08:33N 56°06' E 015°34'5 4.6
2014-Oct-23 07:33N 56°10' E 015°38'0 0.1
2014-Oct-23 06:33N 56°10' E 015°38'1111.1
2014-Oct-23 05:34N 55°60' E 015°46'8615.7
2014-Oct-23 00:06N 55°12' E 017°52'915.6
2014-Oct-22 23:33N 55°07' E 018°04'1615.8
2014-Oct-22 22:33N 54°59' E 018°27'1515.1
2014-Oct-22 21:33N 54°48' E 018°46'1313.1
2014-Oct-22 20:33N 54°36' E 018°54'1212.3
2014-Oct-22 19:34N 54°32' E 018°34'2 2.2
2014-Oct-22 18:33N 54°33' E 018°30'3 3.2
2014-Oct-22 17:33N 54°32' E 018°36'1514.6
2014-Oct-22 16:33N 54°42' E 018°55'1716.8
2014-Oct-22 15:33N 54°55' E 018°37'1716.6
2014-Oct-22 14:33N 55°04' E 018°13'8416.4
2014-Oct-22 09:28N 55°51' E 016°11'1516.8
2014-Oct-22 08:33N 55°59' E 015°48'1211.6
2014-Oct-22 07:33N 56°09' E 015°36'2 1.5
2014-Oct-22 06:32N 56°10' E 015°38'0 0.3
2014-Oct-22 05:33N 56°10' E 015°37'1312.7
2014-Oct-22 04:33N 55°59' E 015°49'1716.9
2014-Oct-22 03:33N 55°52' E 016°16'6716.7
2014-Oct-21 23:32N 55°13' E 017°53'1717.1
2014-Oct-21 22:33N 55°03' E 018°17'1716.6
2014-Oct-21 21:33N 54°53' E 018°40'1716.6
2014-Oct-21 20:33N 54°40' E 018°57'1313.3
2014-Oct-21 19:33N 54°32' E 018°38'5 4.6
2014-Oct-21 18:32N 54°33' E 018°30'0 0.0
2014-Oct-21 17:32N 54°33' E 018°30'9 9.4
2014-Oct-21 16:33N 54°32' E 018°46'1414.5
2014-Oct-21 15:33N 54°47' E 018°48'1818.5
2014-Oct-21 14:33N 54°60' E 018°26'1818.1
2014-Oct-21 13:33N 55°11' E 018°00'7518.3
2014-Oct-21 09:26N 55°51' E 016°08'1517.4
2014-Oct-21 08:33N 55°60' E 015°45'1111.0
2014-Oct-21 07:34N 56°10' E 015°38'0 0.1
2014-Oct-21 06:32N 56°10' E 015°38'0 0.0
2014-Oct-21 05:32N 56°10' E 015°38'9 8.9
2014-Oct-21 04:34N 56°01' E 015°41'9014.7
2014-Oct-20 22:25N 55°12' E 017°54'1314.6
2014-Oct-20 21:34N 55°05' E 018°12'1514.6
2014-Oct-20 20:34N 54°57' E 018°33'1414.4
2014-Oct-20 19:33N 54°46' E 018°50'1312.5
2014-Oct-20 18:33N 54°34' E 018°51'1212.0
2014-Oct-20 17:33N 54°33' E 018°30'0 0.1
2014-Oct-20 16:31N 54°33' E 018°30'0 0.0
2014-Oct-20 15:31N 54°33' E 018°30'0 0.0
2014-Oct-20 14:31N 54°33' E 018°30'0 0.0
2014-Oct-20 13:31N 54°33' E 018°30'0 0.0
2014-Oct-20 12:31N 54°33' E 018°30'0 0.0
2014-Oct-20 11:31N 54°33' E 018°30'0 0.0
2014-Oct-20 10:31N 54°33' E 018°30'0 0.0
2014-Oct-20 09:28N 54°33' E 018°30'0 0.0
2014-Oct-20 08:31N 54°33' E 018°30'0 0.0
2014-Oct-20 07:31N 54°33' E 018°30'1 1.2
2014-Oct-20 06:34N 54°32' E 018°32'1212.4
2014-Oct-20 05:33N 54°36' E 018°53'1313.4
2014-Oct-20 04:33N 54°49' E 018°47'1515.3
2014-Oct-20 03:33N 54°60' E 018°28'1515.4
2014-Oct-20 02:33N 55°08' E 018°05'1615.4
2014-Oct-20 01:32N 55°16' E 017°42'6415.4
2014-Oct-19 21:20N 55°52' E 016°07'1215.3
2014-Oct-19 20:33N 55°58' E 015°49'1212.4
2014-Oct-19 19:33N 56°09' E 015°36'1 1.5
2014-Oct-19 18:33N 56°10' E 015°38'4 3.6
2014-Oct-19 17:34N 56°07' E 015°35'1514.7
2014-Oct-19 16:34N 55°57' E 015°54'8116.2
2014-Oct-19 11:33N 55°12' E 017°55'1616.4
2014-Oct-19 10:33N 55°03' E 018°18'1616.4
2014-Oct-19 09:34N 54°53' E 018°40'1616.2
2014-Oct-19 08:34N 54°40' E 018°57'1413.7
2014-Oct-19 07:33N 54°32' E 018°38'5 4.3
2014-Oct-19 06:29N 54°33' E 018°30'0 0.0
2014-Oct-19 05:33N 54°33' E 018°30'10 9.6
2014-Oct-19 04:33N 54°33' E 018°47'1413.7
2014-Oct-19 03:33N 54°46' E 018°52'1817.8
2014-Oct-19 02:33N 54°58' E 018°29'1717.3
2014-Oct-19 01:33N 55°08' E 018°05'1917.4
2014-Oct-19 00:28N 55°19' E 017°37'5817.2
2014-Oct-18 21:05N 55°51' E 016°11'917.3
2014-Oct-18 20:33N 55°56' E 015°57'1615.7
2014-Oct-18 19:33N 56°04' E 015°34'6 5.7
2014-Oct-18 18:31N 56°10' E 015°38'0 0.0
2014-Oct-18 17:34N 56°10' E 015°38'10 9.8
2014-Oct-18 16:33N 56°01' E 015°43'1616.1
2014-Oct-18 15:33N 55°52' E 016°08'5916.8
2014-Oct-18 12:03N 55°20' E 017°35'817.0
2014-Oct-18 11:33N 55°15' E 017°47'1716.9
2014-Oct-18 10:33N 55°06' E 018°12'1716.9
2014-Oct-18 09:33N 54°56' E 018°35'1716.7
2014-Oct-18 08:33N 54°43' E 018°54'1312.6
2014-Oct-18 07:33N 54°32' E 018°43'7 7.3
2014-Oct-18 06:32N 54°33' E 018°30'0 0.0
2014-Oct-18 05:34N 54°33' E 018°30'9 9.1
2014-Oct-18 04:33N 54°32' E 018°46'1212.3
2014-Oct-18 03:33N 54°44' E 018°54'1414.0
2014-Oct-18 02:33N 54°54' E 018°37'1414.1
2014-Oct-18 01:33N 55°03' E 018°17'1414.3
2014-Oct-18 00:33N 55°10' E 017°56'1514.4
2014-Oct-17 23:32N 55°17' E 017°34'7114.3
2014-Oct-17 18:33N 55°54' E 015°45'1313.4
2014-Oct-17 17:33N 56°06' E 015°34'5 4.6
2014-Oct-17 16:33N 56°10' E 015°38'0 0.0
2014-Oct-17 15:33N 56°10' E 015°38'0 0.0
2014-Oct-17 14:33N 56°10' E 015°38'0 0.0
2014-Oct-17 13:33N 56°10' E 015°38'0 0.0
2014-Oct-17 12:33N 56°10' E 015°38'0 0.0
2014-Oct-17 11:33N 56°10' E 015°38'0 0.0
2014-Oct-17 10:33N 56°10' E 015°38'0 0.0
2014-Oct-17 09:33N 56°10' E 015°38'0 0.0
2014-Oct-17 08:33N 56°10' E 015°38'0 0.0
2014-Oct-17 07:33N 56°10' E 015°38'3 2.6
2014-Oct-17 06:33N 56°08' E 015°36'1413.8
2014-Oct-17 05:33N 55°57' E 015°52'7915.8
2014-Oct-17 00:32N 55°14' E 017°49'1616.2
2014-Oct-16 23:33N 55°05' E 018°12'1616.2
2014-Oct-16 22:33N 54°55' E 018°35'1615.9
2014-Oct-16 21:33N 54°44' E 018°54'1313.0
2014-Oct-16 20:33N 54°32' E 018°45'9 8.5
2014-Oct-16 19:32N 54°33' E 018°30'0 0.0
2014-Oct-16 18:33N 54°33' E 018°30'7 7.2
2014-Oct-16 17:34N 54°32' E 018°43'1616.2
2014-Oct-16 16:33N 54°46' E 018°57'1918.7
2014-Oct-16 15:33N 54°58' E 018°32'1918.2
2014-Oct-16 14:29N 55°09' E 018°04'9118.4
2014-Oct-16 09:33N 55°58' E 015°50'1312.7
2014-Oct-16 08:33N 56°08' E 015°36'2 1.7
2014-Oct-16 07:32N 56°10' E 015°38'0 0.1
2014-Oct-16 06:34N 56°10' E 015°38'1110.5
2014-Oct-16 05:33N 56°00' E 015°45'1414.1
2014-Oct-16 04:33N 55°53' E 016°06'7715.4
2014-Oct-15 23:33N 55°10' E 017°60'1716.6
2014-Oct-15 22:33N 55°01' E 018°24'1615.5
2014-Oct-15 21:33N 54°50' E 018°43'1514.6
2014-Oct-15 20:33N 54°38' E 018°56'1312.9
2014-Oct-15 19:34N 54°32' E 018°36'3 3.2
2014-Oct-15 18:32N 54°33' E 018°30'0 0.5
2014-Oct-15 17:33N 54°33' E 018°31'1111.0
2014-Oct-15 16:34N 54°33' E 018°50'1515.0
2014-Oct-15 15:34N 54°48' E 018°52'1818.1
2014-Oct-15 14:34N 54°60' E 018°28'1717.2
2014-Oct-15 13:34N 55°09' E 018°02'  

Dump ship's entire track history